sensor_id;sensor_type;location;lat;lon;timestamp;temperature;humidity
7562;DHT22;3822;48.784;9.174;2023-03-14T00:01:15;12.60;96.60
7562;DHT22;3822;48.784;9.174;2023-03-14T00:03:43;12.60;96.60
7562;DHT22;3822;48.784;9.174;2023-03-14T00:06:10;12.60;96.60
7562;DHT22;3822;48.784;9.174;2023-03-14T00:08:36;12.70;96.70
7562;DHT22;3822;48.784;9.174;2023-03-14T00:11:06;12.70;96.70
7562;DHT22;3822;48.784;9.174;2023-03-14T00:13:36;12.70;96.90
7562;DHT22;3822;48.784;9.174;2023-03-14T00:16:07;12.60;97.10
7562;DHT22;3822;48.784;9.174;2023-03-14T00:18:35;12.60;97.00
7562;DHT22;3822;48.784;9.174;2023-03-14T00:21:03;12.60;97.00
7562;DHT22;3822;48.784;9.174;2023-03-14T00:23:34;12.60;97.00
7562;DHT22;3822;48.784;9.174;2023-03-14T00:26:05;12.60;97.10
7562;DHT22;3822;48.784;9.174;2023-03-14T00:28:36;12.60;97.00
7562;DHT22;3822;48.784;9.174;2023-03-14T00:31:05;12.60;97.00
7562;DHT22;3822;48.784;9.174;2023-03-14T00:33:34;12.60;97.10
7562;DHT22;3822;48.784;9.174;2023-03-14T00:36:04;12.60;97.20
7562;DHT22;3822;48.784;9.174;2023-03-14T00:38:32;12.50;97.10
7562;DHT22;3822;48.784;9.174;2023-03-14T00:40:58;12.50;97.10
7562;DHT22;3822;48.784;9.174;2023-03-14T00:43:25;12.50;97.00
7562;DHT22;3822;48.784;9.174;2023-03-14T00:45:52;12.50;97.00
7562;DHT22;3822;48.784;9.174;2023-03-14T00:48:18;12.50;97.00
7562;DHT22;3822;48.784;9.174;2023-03-14T00:50:45;12.50;97.10
7562;DHT22;3822;48.784;9.174;2023-03-14T00:53:12;12.50;97.20
7562;DHT22;3822;48.784;9.174;2023-03-14T00:55:40;12.50;97.10
7562;DHT22;3822;48.784;9.174;2023-03-14T00:58:09;12.40;97.20
7562;DHT22;3822;48.784;9.174;2023-03-14T01:00:36;12.40;97.30
7562;DHT22;3822;48.784;9.174;2023-03-14T01:03:03;12.40;97.20
7562;DHT22;3822;48.784;9.174;2023-03-14T01:05:29;12.40;97.20
7562;DHT22;3822;48.784;9.174;2023-03-14T01:07:56;12.40;97.20
7562;DHT22;3822;48.784;9.174;2023-03-14T01:10:22;12.40;97.20
7562;DHT22;3822;48.784;9.174;2023-03-14T01:12:49;12.40;97.20
7562;DHT22;3822;48.784;9.174;2023-03-14T01:15:15;12.40;97.30
7562;DHT22;3822;48.784;9.174;2023-03-14T01:17:44;12.40;97.20
7562;DHT22;3822;48.784;9.174;2023-03-14T01:20:11;12.40;97.20
7562;DHT22;3822;48.784;9.174;2023-03-14T01:22:38;12.40;97.20
7562;DHT22;3822;48.784;9.174;2023-03-14T01:25:06;12.40;97.20
7562;DHT22;3822;48.784;9.174;2023-03-14T01:27:34;12.40;97.10
7562;DHT22;3822;48.784;9.174;2023-03-14T01:30:00;12.40;97.10
7562;DHT22;3822;48.784;9.174;2023-03-14T01:32:28;12.50;97.10
7562;DHT22;3822;48.784;9.174;2023-03-14T01:34:54;12.50;97.10
7562;DHT22;3822;48.784;9.174;2023-03-14T01:37:20;12.50;97.00
7562;DHT22;3822;48.784;9.174;2023-03-14T01:39:47;12.50;96.90
7562;DHT22;3822;48.784;9.174;2023-03-14T01:42:14;12.50;96.80
7562;DHT22;3822;48.784;9.174;2023-03-14T01:44:54;12.50;96.70
7562;DHT22;3822;48.784;9.174;2023-03-14T01:47:22;12.50;96.70
7562;DHT22;3822;48.784;9.174;2023-03-14T01:49:54;12.60;96.70
7562;DHT22;3822;48.784;9.174;2023-03-14T01:52:28;12.60;96.60
7562;DHT22;3822;48.784;9.174;2023-03-14T01:55:00;12.60;96.50
7562;DHT22;3822;48.784;9.174;2023-03-14T01:57:32;12.60;96.40
7562;DHT22;3822;48.784;9.174;2023-03-14T02:00:02;12.60;96.40
7562;DHT22;3822;48.784;9.174;2023-03-14T02:02:31;12.60;96.30
7562;DHT22;3822;48.784;9.174;2023-03-14T02:04:58;12.60;96.10
7562;DHT22;3822;48.784;9.174;2023-03-14T02:09:51;12.60;95.70
7562;DHT22;3822;48.784;9.174;2023-03-14T02:12:18;12.50;95.60
7562;DHT22;3822;48.784;9.174;2023-03-14T02:14:46;12.50;95.50
7562;DHT22;3822;48.784;9.174;2023-03-14T02:17:14;12.50;95.50
7562;DHT22;3822;48.784;9.174;2023-03-14T02:22:27;12.50;95.60
7562;DHT22;3822;48.784;9.174;2023-03-14T02:27:55;12.50;95.80
7562;DHT22;3822;48.784;9.174;2023-03-14T02:30:25;12.40;95.80
7562;DHT22;3822;48.784;9.174;2023-03-14T02:33:03;12.40;95.90
7562;DHT22;3822;48.784;9.174;2023-03-14T02:35:55;12.40;96.00
7562;DHT22;3822;48.784;9.174;2023-03-14T02:41:01;12.40;96.20
7562;DHT22;3822;48.784;9.174;2023-03-14T02:43:28;12.40;96.20
7562;DHT22;3822;48.784;9.174;2023-03-14T02:45:54;12.30;96.20
7562;DHT22;3822;48.784;9.174;2023-03-14T02:48:25;12.40;96.40
7562;DHT22;3822;48.784;9.174;2023-03-14T02:50:57;12.30;96.30
7562;DHT22;3822;48.784;9.174;2023-03-14T02:53:34;12.30;96.30
7562;DHT22;3822;48.784;9.174;2023-03-14T02:56:02;12.30;96.50
7562;DHT22;3822;48.784;9.174;2023-03-14T02:58:30;12.20;96.50
7562;DHT22;3822;48.784;9.174;2023-03-14T03:00:56;12.20;96.60
7562;DHT22;3822;48.784;9.174;2023-03-14T03:03:23;12.10;96.50
7562;DHT22;3822;48.784;9.174;2023-03-14T03:05:50;12.20;96.50
7562;DHT22;3822;48.784;9.174;2023-03-14T03:08:18;12.10;96.50
7562;DHT22;3822;48.784;9.174;2023-03-14T03:10:45;12.10;96.40
7562;DHT22;3822;48.784;9.174;2023-03-14T03:13:12;12.00;96.30
7562;DHT22;3822;48.784;9.174;2023-03-14T03:15:38;12.00;96.20
7562;DHT22;3822;48.784;9.174;2023-03-14T03:18:05;12.00;96.00
7562;DHT22;3822;48.784;9.174;2023-03-14T03:20:32;12.00;95.80
7562;DHT22;3822;48.784;9.174;2023-03-14T03:22:58;12.00;95.80
7562;DHT22;3822;48.784;9.174;2023-03-14T03:25:25;12.00;95.60
7562;DHT22;3822;48.784;9.174;2023-03-14T03:27:52;12.00;95.60
7562;DHT22;3822;48.784;9.174;2023-03-14T03:30:19;12.00;95.60
7562;DHT22;3822;48.784;9.174;2023-03-14T03:32:45;12.00;95.40
7562;DHT22;3822;48.784;9.174;2023-03-14T03:35:12;12.00;95.20
7562;DHT22;3822;48.784;9.174;2023-03-14T03:37:39;12.00;95.00
7562;DHT22;3822;48.784;9.174;2023-03-14T03:40:06;11.90;94.80
7562;DHT22;3822;48.784;9.174;2023-03-14T03:42:33;11.90;94.70
7562;DHT22;3822;48.784;9.174;2023-03-14T03:45:00;12.00;94.60
7562;DHT22;3822;48.784;9.174;2023-03-14T03:47:28;11.90;94.50
7562;DHT22;3822;48.784;9.174;2023-03-14T03:49:56;11.90;94.30
7562;DHT22;3822;48.784;9.174;2023-03-14T03:52:22;11.90;94.30
7562;DHT22;3822;48.784;9.174;2023-03-14T03:54:48;11.90;94.00
7562;DHT22;3822;48.784;9.174;2023-03-14T03:57:15;11.90;93.90
7562;DHT22;3822;48.784;9.174;2023-03-14T03:59:41;11.90;93.80
7562;DHT22;3822;48.784;9.174;2023-03-14T04:02:07;11.90;93.50
7562;DHT22;3822;48.784;9.174;2023-03-14T04:04:34;11.90;93.40
7562;DHT22;3822;48.784;9.174;2023-03-14T04:07:00;11.90;93.30
7562;DHT22;3822;48.784;9.174;2023-03-14T04:09:26;11.90;93.20
7562;DHT22;3822;48.784;9.174;2023-03-14T04:11:53;11.90;93.10
7562;DHT22;3822;48.784;9.174;2023-03-14T04:14:19;11.80;92.90
7562;DHT22;3822;48.784;9.174;2023-03-14T04:16:46;11.90;92.80
7562;DHT22;3822;48.784;9.174;2023-03-14T04:19:12;11.80;92.70
7562;DHT22;3822;48.784;9.174;2023-03-14T04:21:38;11.80;92.60
7562;DHT22;3822;48.784;9.174;2023-03-14T04:24:11;11.80;92.50
7562;DHT22;3822;48.784;9.174;2023-03-14T04:26:37;11.80;92.50
7562;DHT22;3822;48.784;9.174;2023-03-14T04:29:04;11.80;92.40
7562;DHT22;3822;48.784;9.174;2023-03-14T04:31:30;11.80;92.50
7562;DHT22;3822;48.784;9.174;2023-03-14T04:33:56;11.80;92.40
7562;DHT22;3822;48.784;9.174;2023-03-14T04:36:23;11.80;92.40
7562;DHT22;3822;48.784;9.174;2023-03-14T04:38:49;11.80;92.20
7562;DHT22;3822;48.784;9.174;2023-03-14T04:41:15;11.80;92.10
7562;DHT22;3822;48.784;9.174;2023-03-14T04:43:42;11.70;92.10
7562;DHT22;3822;48.784;9.174;2023-03-14T04:46:08;11.80;92.10
7562;DHT22;3822;48.784;9.174;2023-03-14T04:48:34;11.80;92.10
7562;DHT22;3822;48.784;9.174;2023-03-14T04:51:01;11.80;92.00
7562;DHT22;3822;48.784;9.174;2023-03-14T04:53:27;11.80;92.00
7562;DHT22;3822;48.784;9.174;2023-03-14T04:55:54;11.80;92.00
7562;DHT22;3822;48.784;9.174;2023-03-14T04:58:22;11.80;92.00
7562;DHT22;3822;48.784;9.174;2023-03-14T05:00:49;11.90;92.00
7562;DHT22;3822;48.784;9.174;2023-03-14T05:03:16;11.90;92.00
7562;DHT22;3822;48.784;9.174;2023-03-14T05:05:43;11.90;91.90
7562;DHT22;3822;48.784;9.174;2023-03-14T05:08:10;11.90;91.90
7562;DHT22;3822;48.784;9.174;2023-03-14T05:10:37;11.90;91.90
7562;DHT22;3822;48.784;9.174;2023-03-14T05:13:03;11.90;91.90
7562;DHT22;3822;48.784;9.174;2023-03-14T05:15:30;11.90;91.80
7562;DHT22;3822;48.784;9.174;2023-03-14T05:17:56;11.90;91.90
7562;DHT22;3822;48.784;9.174;2023-03-14T05:20:22;12.00;91.90
7562;DHT22;3822;48.784;9.174;2023-03-14T05:22:49;12.00;91.80
7562;DHT22;3822;48.784;9.174;2023-03-14T05:25:15;12.00;91.70
7562;DHT22;3822;48.784;9.174;2023-03-14T05:27:41;12.00;91.70
7562;DHT22;3822;48.784;9.174;2023-03-14T05:30:08;12.00;91.70
7562;DHT22;3822;48.784;9.174;2023-03-14T05:32:35;12.00;91.70
7562;DHT22;3822;48.784;9.174;2023-03-14T05:35:01;12.00;91.60
7562;DHT22;3822;48.784;9.174;2023-03-14T05:37:27;12.00;91.60
7562;DHT22;3822;48.784;9.174;2023-03-14T05:39:54;12.10;91.60
7562;DHT22;3822;48.784;9.174;2023-03-14T05:42:20;12.10;91.60
7562;DHT22;3822;48.784;9.174;2023-03-14T05:44:46;12.10;91.50
7562;DHT22;3822;48.784;9.174;2023-03-14T05:47:13;12.20;91.50
7562;DHT22;3822;48.784;9.174;2023-03-14T05:49:39;12.10;91.40
7562;DHT22;3822;48.784;9.174;2023-03-14T05:52:06;12.20;91.50
7562;DHT22;3822;48.784;9.174;2023-03-14T05:54:32;12.10;91.40
7562;DHT22;3822;48.784;9.174;2023-03-14T05:56:58;12.20;91.40
7562;DHT22;3822;48.784;9.174;2023-03-14T05:59:25;12.20;91.30
7562;DHT22;3822;48.784;9.174;2023-03-14T06:01:51;12.10;91.20
7562;DHT22;3822;48.784;9.174;2023-03-14T06:04:17;12.10;91.20
7562;DHT22;3822;48.784;9.174;2023-03-14T06:06:43;12.10;91.10
7562;DHT22;3822;48.784;9.174;2023-03-14T06:09:10;12.10;91.10
7562;DHT22;3822;48.784;9.174;2023-03-14T06:11:36;12.10;91.10
7562;DHT22;3822;48.784;9.174;2023-03-14T06:14:03;12.10;91.10
7562;DHT22;3822;48.784;9.174;2023-03-14T06:16:29;12.20;91.10
7562;DHT22;3822;48.784;9.174;2023-03-14T06:18:55;12.20;91.10
7562;DHT22;3822;48.784;9.174;2023-03-14T06:21:22;12.20;91.10
7562;DHT22;3822;48.784;9.174;2023-03-14T06:23:48;12.20;91.00
7562;DHT22;3822;48.784;9.174;2023-03-14T06:26:14;12.20;91.00
7562;DHT22;3822;48.784;9.174;2023-03-14T06:28:41;12.20;90.90
7562;DHT22;3822;48.784;9.174;2023-03-14T06:31:07;12.20;90.80
7562;DHT22;3822;48.784;9.174;2023-03-14T06:33:33;12.30;90.80
7562;DHT22;3822;48.784;9.174;2023-03-14T06:36:00;12.30;90.60
7562;DHT22;3822;48.784;9.174;2023-03-14T06:38:26;12.20;90.50
7562;DHT22;3822;48.784;9.174;2023-03-14T06:40:52;12.30;90.60
7562;DHT22;3822;48.784;9.174;2023-03-14T06:43:19;12.30;90.60
7562;DHT22;3822;48.784;9.174;2023-03-14T06:45:45;12.40;90.60
7562;DHT22;3822;48.784;9.174;2023-03-14T06:48:11;12.40;90.60
7562;DHT22;3822;48.784;9.174;2023-03-14T06:50:38;12.40;90.50
7562;DHT22;3822;48.784;9.174;2023-03-14T06:53:04;12.40;90.40
7562;DHT22;3822;48.784;9.174;2023-03-14T06:55:30;12.40;90.30
7562;DHT22;3822;48.784;9.174;2023-03-14T06:57:56;12.50;90.30
7562;DHT22;3822;48.784;9.174;2023-03-14T07:00:23;12.50;90.30
7562;DHT22;3822;48.784;9.174;2023-03-14T07:02:49;12.60;90.30
7562;DHT22;3822;48.784;9.174;2023-03-14T07:05:15;12.60;90.20
7562;DHT22;3822;48.784;9.174;2023-03-14T07:07:42;12.70;90.10
7562;DHT22;3822;48.784;9.174;2023-03-14T07:10:08;12.70;90.00
7562;DHT22;3822;48.784;9.174;2023-03-14T07:12:35;12.70;90.00
7562;DHT22;3822;48.784;9.174;2023-03-14T07:15:02;12.80;90.00
7562;DHT22;3822;48.784;9.174;2023-03-14T07:17:28;12.80;89.70
7562;DHT22;3822;48.784;9.174;2023-03-14T07:19:55;12.90;89.20
7562;DHT22;3822;48.784;9.174;2023-03-14T07:22:21;12.90;89.20
7562;DHT22;3822;48.784;9.174;2023-03-14T07:24:47;13.00;88.50
7562;DHT22;3822;48.784;9.174;2023-03-14T07:27:14;13.00;88.40
7562;DHT22;3822;48.784;9.174;2023-03-14T07:29:40;13.10;88.10
7562;DHT22;3822;48.784;9.174;2023-03-14T07:32:06;13.10;87.90
7562;DHT22;3822;48.784;9.174;2023-03-14T07:34:33;13.10;87.80
7562;DHT22;3822;48.784;9.174;2023-03-14T07:37:00;13.20;87.40
7562;DHT22;3822;48.784;9.174;2023-03-14T07:39:26;13.20;87.30
7562;DHT22;3822;48.784;9.174;2023-03-14T07:41:53;13.30;87.20
7562;DHT22;3822;48.784;9.174;2023-03-14T07:44:19;13.30;86.90
7562;DHT22;3822;48.784;9.174;2023-03-14T07:46:45;13.30;86.80
7562;DHT22;3822;48.784;9.174;2023-03-14T07:49:12;13.40;86.70
7562;DHT22;3822;48.784;9.174;2023-03-14T07:51:38;13.40;86.60
7562;DHT22;3822;48.784;9.174;2023-03-14T07:54:04;13.50;87.00
7562;DHT22;3822;48.784;9.174;2023-03-14T07:56:31;13.50;87.00
7562;DHT22;3822;48.784;9.174;2023-03-14T07:58:57;13.60;86.40
7562;DHT22;3822;48.784;9.174;2023-03-14T08:01:23;13.70;86.30
7562;DHT22;3822;48.784;9.174;2023-03-14T08:03:51;13.60;85.80
7562;DHT22;3822;48.784;9.174;2023-03-14T08:06:17;13.70;85.90
7562;DHT22;3822;48.784;9.174;2023-03-14T08:08:43;13.70;85.50
7562;DHT22;3822;48.784;9.174;2023-03-14T08:11:10;13.70;85.20
7562;DHT22;3822;48.784;9.174;2023-03-14T08:13:37;13.80;85.00
7562;DHT22;3822;48.784;9.174;2023-03-14T08:16:03;13.80;84.90
7562;DHT22;3822;48.784;9.174;2023-03-14T08:18:30;13.80;84.80
7562;DHT22;3822;48.784;9.174;2023-03-14T08:20:57;13.80;84.70
7562;DHT22;3822;48.784;9.174;2023-03-14T08:23:24;13.90;84.40
7562;DHT22;3822;48.784;9.174;2023-03-14T08:25:51;14.00;84.40
7562;DHT22;3822;48.784;9.174;2023-03-14T08:28:19;14.00;83.70
7562;DHT22;3822;48.784;9.174;2023-03-14T08:30:46;14.00;83.40
7562;DHT22;3822;48.784;9.174;2023-03-14T08:33:12;14.00;83.20
7562;DHT22;3822;48.784;9.174;2023-03-14T08:35:38;14.00;83.00
7562;DHT22;3822;48.784;9.174;2023-03-14T08:38:05;14.00;82.40
7562;DHT22;3822;48.784;9.174;2023-03-14T08:40:31;14.10;82.30
7562;DHT22;3822;48.784;9.174;2023-03-14T08:42:58;13.80;82.10
7562;DHT22;3822;48.784;9.174;2023-03-14T08:45:24;14.10;82.90
7562;DHT22;3822;48.784;9.174;2023-03-14T08:47:50;14.20;82.80
7562;DHT22;3822;48.784;9.174;2023-03-14T08:50:17;14.30;81.60
7562;DHT22;3822;48.784;9.174;2023-03-14T08:52:43;14.30;80.50
7562;DHT22;3822;48.784;9.174;2023-03-14T08:55:10;14.30;80.00
7562;DHT22;3822;48.784;9.174;2023-03-14T08:57:36;14.30;79.80
7562;DHT22;3822;48.784;9.174;2023-03-14T09:00:03;14.50;79.50
7562;DHT22;3822;48.784;9.174;2023-03-14T09:02:38;14.50;79.50
7562;DHT22;3822;48.784;9.174;2023-03-14T09:05:04;14.40;79.70
7562;DHT22;3822;48.784;9.174;2023-03-14T09:07:31;14.40;79.80
7562;DHT22;3822;48.784;9.174;2023-03-14T09:09:58;14.40;80.10
7562;DHT22;3822;48.784;9.174;2023-03-14T09:12:24;14.40;80.30
7562;DHT22;3822;48.784;9.174;2023-03-14T09:14:50;14.40;80.70
7562;DHT22;3822;48.784;9.174;2023-03-14T09:17:17;14.40;81.00
7562;DHT22;3822;48.784;9.174;2023-03-14T09:19:43;14.30;81.10
7562;DHT22;3822;48.784;9.174;2023-03-14T09:22:09;14.30;81.60
7562;DHT22;3822;48.784;9.174;2023-03-14T09:24:36;14.30;82.30
7562;DHT22;3822;48.784;9.174;2023-03-14T09:27:02;14.30;82.50
7562;DHT22;3822;48.784;9.174;2023-03-14T09:29:28;14.30;82.80
7562;DHT22;3822;48.784;9.174;2023-03-14T09:31:55;14.20;83.20
7562;DHT22;3822;48.784;9.174;2023-03-14T09:34:22;14.20;83.00
7562;DHT22;3822;48.784;9.174;2023-03-14T09:36:49;14.20;82.60
7562;DHT22;3822;48.784;9.174;2023-03-14T09:39:15;14.20;82.80
7562;DHT22;3822;48.784;9.174;2023-03-14T09:41:43;14.20;83.00
7562;DHT22;3822;48.784;9.174;2023-03-14T09:44:30;14.20;83.30
7562;DHT22;3822;48.784;9.174;2023-03-14T09:47:00;14.10;83.00
7562;DHT22;3822;48.784;9.174;2023-03-14T09:49:36;14.00;83.00
7562;DHT22;3822;48.784;9.174;2023-03-14T09:52:11;14.00;83.20
7562;DHT22;3822;48.784;9.174;2023-03-14T09:54:59;14.00;83.60
7562;DHT22;3822;48.784;9.174;2023-03-14T09:57:28;14.00;83.80
7562;DHT22;3822;48.784;9.174;2023-03-14T09:59:57;14.00;83.80
7562;DHT22;3822;48.784;9.174;2023-03-14T10:02:32;14.00;83.50
7562;DHT22;3822;48.784;9.174;2023-03-14T10:05:00;14.10;83.20
7562;DHT22;3822;48.784;9.174;2023-03-14T10:07:28;14.10;83.10
7562;DHT22;3822;48.784;9.174;2023-03-14T10:09:58;14.10;83.10
7562;DHT22;3822;48.784;9.174;2023-03-14T10:12:31;14.10;82.80
7562;DHT22;3822;48.784;9.174;2023-03-14T10:15:02;14.10;83.50
7562;DHT22;3822;48.784;9.174;2023-03-14T10:17:37;14.10;82.70
7562;DHT22;3822;48.784;9.174;2023-03-14T10:20:05;14.10;82.90
7562;DHT22;3822;48.784;9.174;2023-03-14T10:22:31;14.20;82.70
7562;DHT22;3822;48.784;9.174;2023-03-14T10:25:03;14.20;82.30
7562;DHT22;3822;48.784;9.174;2023-03-14T10:27:32;14.30;82.70
7562;DHT22;3822;48.784;9.174;2023-03-14T10:30:00;14.40;82.50
7562;DHT22;3822;48.784;9.174;2023-03-14T10:32:39;14.40;82.50
7562;DHT22;3822;48.784;9.174;2023-03-14T10:37:55;14.50;80.90
7562;DHT22;3822;48.784;9.174;2023-03-14T10:40:25;14.40;80.60
7562;DHT22;3822;48.784;9.174;2023-03-14T10:42:53;14.50;81.00
7562;DHT22;3822;48.784;9.174;2023-03-14T10:45:31;14.50;81.00
7562;DHT22;3822;48.784;9.174;2023-03-14T10:50:56;14.50;80.30
7562;DHT22;3822;48.784;9.174;2023-03-14T10:53:45;14.50;80.50
7562;DHT22;3822;48.784;9.174;2023-03-14T10:56:36;14.50;80.30
7562;DHT22;3822;48.784;9.174;2023-03-14T10:59:03;14.50;80.30
7562;DHT22;3822;48.784;9.174;2023-03-14T11:01:44;14.50;80.70
7562;DHT22;3822;48.784;9.174;2023-03-14T11:06:53;14.40;80.80
7562;DHT22;3822;48.784;9.174;2023-03-14T11:09:32;14.40;81.60
7562;DHT22;3822;48.784;9.174;2023-03-14T11:15:15;14.20;83.00
7562;DHT22;3822;48.784;9.174;2023-03-14T11:17:50;14.10;83.70
7562;DHT22;3822;48.784;9.174;2023-03-14T11:26:16;14.00;86.00
7562;DHT22;3822;48.784;9.174;2023-03-14T11:28:58;13.90;86.80
7562;DHT22;3822;48.784;9.174;2023-03-14T11:31:29;13.80;87.20
7562;DHT22;3822;48.784;9.174;2023-03-14T11:36:44;13.60;87.20
7562;DHT22;3822;48.784;9.174;2023-03-14T11:39:41;13.50;87.80
7562;DHT22;3822;48.784;9.174;2023-03-14T11:42:12;13.40;87.60
7562;DHT22;3822;48.784;9.174;2023-03-14T11:44:39;13.40;88.10
7562;DHT22;3822;48.784;9.174;2023-03-14T11:52:33;13.20;87.80
7562;DHT22;3822;48.784;9.174;2023-03-14T11:55:07;13.20;88.60
7562;DHT22;3822;48.784;9.174;2023-03-14T11:57:39;13.20;89.70
7562;DHT22;3822;48.784;9.174;2023-03-14T12:13:08;13.10;90.50
7562;DHT22;3822;48.784;9.174;2023-03-14T12:15:38;13.10;90.40
7562;DHT22;3822;48.784;9.174;2023-03-14T12:18:21;13.10;90.30
7562;DHT22;3822;48.784;9.174;2023-03-14T12:21:06;13.10;90.30
7562;DHT22;3822;48.784;9.174;2023-03-14T12:23:39;13.10;90.60
7562;DHT22;3822;48.784;9.174;2023-03-14T12:26:08;13.10;90.70
7562;DHT22;3822;48.784;9.174;2023-03-14T12:29:24;13.10;90.80
7562;DHT22;3822;48.784;9.174;2023-03-14T12:34:01;13.10;87.80
7562;DHT22;3822;48.784;9.174;2023-03-14T12:42:04;13.10;83.80
7562;DHT22;3822;48.784;9.174;2023-03-14T12:44:38;13.00;81.80
7562;DHT22;3822;48.784;9.174;2023-03-14T12:49:47;13.10;77.80
7562;DHT22;3822;48.784;9.174;2023-03-14T12:59:59;13.00;72.00
7562;DHT22;3822;48.784;9.174;2023-03-14T13:02:37;12.90;71.30
7562;DHT22;3822;48.784;9.174;2023-03-14T13:10:28;13.20;69.90
7562;DHT22;3822;48.784;9.174;2023-03-14T13:12:57;13.10;69.20
7562;DHT22;3822;48.784;9.174;2023-03-14T13:20:59;13.00;69.80
7562;DHT22;3822;48.784;9.174;2023-03-14T13:23:30;13.00;69.70
7562;DHT22;3822;48.784;9.174;2023-03-14T13:25:58;13.00;68.60
7562;DHT22;3822;48.784;9.174;2023-03-14T13:28:26;13.00;67.80
7562;DHT22;3822;48.784;9.174;2023-03-14T13:31:03;13.10;67.20
7562;DHT22;3822;48.784;9.174;2023-03-14T13:33:32;13.00;66.50
7562;DHT22;3822;48.784;9.174;2023-03-14T13:36:00;12.90;65.10
7562;DHT22;3822;48.784;9.174;2023-03-14T13:38:31;12.80;64.70
7562;DHT22;3822;48.784;9.174;2023-03-14T13:41:00;12.70;64.40
7562;DHT22;3822;48.784;9.174;2023-03-14T13:43:30;12.50;63.40
7562;DHT22;3822;48.784;9.174;2023-03-14T13:46:04;12.40;63.90
7562;DHT22;3822;48.784;9.174;2023-03-14T13:48:54;12.40;65.00
7562;DHT22;3822;48.784;9.174;2023-03-14T13:51:22;12.40;63.90
7562;DHT22;3822;48.784;9.174;2023-03-14T13:53:54;12.30;62.50
7562;DHT22;3822;48.784;9.174;2023-03-14T13:56:22;12.30;62.70
7562;DHT22;3822;48.784;9.174;2023-03-14T13:58:50;12.20;60.10
7562;DHT22;3822;48.784;9.174;2023-03-14T14:01:50;12.10;59.10
7562;DHT22;3822;48.784;9.174;2023-03-14T14:04:14;12.00;59.20
7562;DHT22;3822;48.784;9.174;2023-03-14T14:06:55;11.80;59.20
7562;DHT22;3822;48.784;9.174;2023-03-14T14:09:24;11.80;59.40
7562;DHT22;3822;48.784;9.174;2023-03-14T14:11:58;11.70;59.20
7562;DHT22;3822;48.784;9.174;2023-03-14T14:16:58;11.60;58.90
7562;DHT22;3822;48.784;9.174;2023-03-14T14:19:27;11.60;58.80
7562;DHT22;3822;48.784;9.174;2023-03-14T14:21:54;11.50;58.10
7562;DHT22;3822;48.784;9.174;2023-03-14T14:24:21;11.50;57.50
7562;DHT22;3822;48.784;9.174;2023-03-14T14:26:50;11.50;56.80
7562;DHT22;3822;48.784;9.174;2023-03-14T14:29:28;11.50;56.60
7562;DHT22;3822;48.784;9.174;2023-03-14T14:34:40;11.40;56.40
7562;DHT22;3822;48.784;9.174;2023-03-14T14:37:21;11.40;56.20
7562;DHT22;3822;48.784;9.174;2023-03-14T14:39:50;11.40;56.90
7562;DHT22;3822;48.784;9.174;2023-03-14T14:42:19;11.40;57.40
7562;DHT22;3822;48.784;9.174;2023-03-14T14:44:48;11.30;55.80
7562;DHT22;3822;48.784;9.174;2023-03-14T14:47:21;11.30;56.40
7562;DHT22;3822;48.784;9.174;2023-03-14T14:49:49;11.20;56.50
7562;DHT22;3822;48.784;9.174;2023-03-14T14:52:22;11.30;56.50
7562;DHT22;3822;48.784;9.174;2023-03-14T14:55:00;11.20;56.60
7562;DHT22;3822;48.784;9.174;2023-03-14T14:57:28;11.10;56.70
7562;DHT22;3822;48.784;9.174;2023-03-14T15:00:09;11.00;56.10
7562;DHT22;3822;48.784;9.174;2023-03-14T15:02:45;11.00;56.40
7562;DHT22;3822;48.784;9.174;2023-03-14T15:05:17;10.90;56.80
7562;DHT22;3822;48.784;9.174;2023-03-14T15:07:44;10.90;57.20
7562;DHT22;3822;48.784;9.174;2023-03-14T15:10:12;10.90;57.60
7562;DHT22;3822;48.784;9.174;2023-03-14T15:12:40;11.00;57.10
7562;DHT22;3822;48.784;9.174;2023-03-14T15:15:07;11.00;57.10
7562;DHT22;3822;48.784;9.174;2023-03-14T15:17:34;10.90;57.20
7562;DHT22;3822;48.784;9.174;2023-03-14T15:20:06;11.00;57.60
7562;DHT22;3822;48.784;9.174;2023-03-14T15:22:42;11.10;57.40
7562;DHT22;3822;48.784;9.174;2023-03-14T15:25:08;11.10;57.40
7562;DHT22;3822;48.784;9.174;2023-03-14T15:27:35;11.20;57.40
7562;DHT22;3822;48.784;9.174;2023-03-14T15:30:02;11.40;57.90
7562;DHT22;3822;48.784;9.174;2023-03-14T15:32:29;11.50;57.00
7562;DHT22;3822;48.784;9.174;2023-03-14T15:34:56;11.60;56.70
7562;DHT22;3822;48.784;9.174;2023-03-14T15:37:22;11.60;56.60
7562;DHT22;3822;48.784;9.174;2023-03-14T15:39:49;11.60;56.90
7562;DHT22;3822;48.784;9.174;2023-03-14T15:42:15;11.60;56.80
7562;DHT22;3822;48.784;9.174;2023-03-14T15:44:41;11.70;56.90
7562;DHT22;3822;48.784;9.174;2023-03-14T15:47:08;11.70;56.80
7562;DHT22;3822;48.784;9.174;2023-03-14T15:49:36;11.70;56.60
7562;DHT22;3822;48.784;9.174;2023-03-14T15:52:02;11.70;56.70
7562;DHT22;3822;48.784;9.174;2023-03-14T15:54:28;11.70;57.10
7562;DHT22;3822;48.784;9.174;2023-03-14T15:56:55;11.80;57.20
7562;DHT22;3822;48.784;9.174;2023-03-14T15:59:22;11.90;56.80
7562;DHT22;3822;48.784;9.174;2023-03-14T16:01:49;11.90;56.90
7562;DHT22;3822;48.784;9.174;2023-03-14T16:04:15;12.10;57.60
7562;DHT22;3822;48.784;9.174;2023-03-14T16:06:42;12.20;57.00
7562;DHT22;3822;48.784;9.174;2023-03-14T16:09:10;12.30;56.50
7562;DHT22;3822;48.784;9.174;2023-03-14T16:11:37;12.30;56.60
7562;DHT22;3822;48.784;9.174;2023-03-14T16:14:04;12.30;56.20
7562;DHT22;3822;48.784;9.174;2023-03-14T16:16:30;12.30;55.80
7562;DHT22;3822;48.784;9.174;2023-03-14T16:18:57;12.20;55.80
7562;DHT22;3822;48.784;9.174;2023-03-14T16:21:23;12.10;56.00
7562;DHT22;3822;48.784;9.174;2023-03-14T16:23:49;12.10;56.30
7562;DHT22;3822;48.784;9.174;2023-03-14T16:26:17;12.00;56.80
7562;DHT22;3822;48.784;9.174;2023-03-14T16:28:45;12.00;57.00
7562;DHT22;3822;48.784;9.174;2023-03-14T16:31:13;12.00;57.10
7562;DHT22;3822;48.784;9.174;2023-03-14T16:33:41;12.00;57.30
7562;DHT22;3822;48.784;9.174;2023-03-14T16:36:09;11.90;57.60
7562;DHT22;3822;48.784;9.174;2023-03-14T16:38:37;11.90;57.80
7562;DHT22;3822;48.784;9.174;2023-03-14T16:41:12;11.90;57.60
7562;DHT22;3822;48.784;9.174;2023-03-14T16:43:43;11.80;57.80
7562;DHT22;3822;48.784;9.174;2023-03-14T16:46:13;11.70;57.60
7562;DHT22;3822;48.784;9.174;2023-03-14T16:48:41;11.70;58.10
7562;DHT22;3822;48.784;9.174;2023-03-14T16:51:08;11.60;58.20
7562;DHT22;3822;48.784;9.174;2023-03-14T16:53:34;11.60;58.40
7562;DHT22;3822;48.784;9.174;2023-03-14T16:56:03;11.50;58.50
7562;DHT22;3822;48.784;9.174;2023-03-14T16:58:29;11.50;58.80
7562;DHT22;3822;48.784;9.174;2023-03-14T17:00:56;11.50;59.10
7562;DHT22;3822;48.784;9.174;2023-03-14T17:03:23;11.40;59.20
7562;DHT22;3822;48.784;9.174;2023-03-14T17:05:50;11.50;59.40
7562;DHT22;3822;48.784;9.174;2023-03-14T17:08:18;11.50;59.60
7562;DHT22;3822;48.784;9.174;2023-03-14T17:10:45;11.50;59.70
7562;DHT22;3822;48.784;9.174;2023-03-14T17:13:11;11.40;59.50
7562;DHT22;3822;48.784;9.174;2023-03-14T17:15:38;11.40;59.70
7562;DHT22;3822;48.784;9.174;2023-03-14T17:18:04;11.40;59.80
7562;DHT22;3822;48.784;9.174;2023-03-14T17:20:31;11.30;59.90
7562;DHT22;3822;48.784;9.174;2023-03-14T17:22:57;11.30;60.10
7562;DHT22;3822;48.784;9.174;2023-03-14T17:25:24;11.40;60.30
7562;DHT22;3822;48.784;9.174;2023-03-14T17:27:50;11.40;61.00
7562;DHT22;3822;48.784;9.174;2023-03-14T17:30:17;11.30;62.50
7562;DHT22;3822;48.784;9.174;2023-03-14T17:32:43;11.30;63.50
7562;DHT22;3822;48.784;9.174;2023-03-14T17:35:09;11.20;65.60